sensor_id;sensor_type;location;lat;lon;timestamp;temperature;humidity
74901;DHT22;63461;51.416;6.758;2022-12-18T00:01:27;-2.40;99.90
74901;DHT22;63461;51.416;6.758;2022-12-18T00:03:55;-2.40;99.90
74901;DHT22;63461;51.416;6.758;2022-12-18T00:06:22;-2.40;99.90
74901;DHT22;63461;51.416;6.758;2022-12-18T00:08:48;-2.40;99.90
74901;DHT22;63461;51.416;6.758;2022-12-18T00:11:17;-2.40;99.90
74901;DHT22;63461;51.416;6.758;2022-12-18T00:13:44;-2.40;99.90
74901;DHT22;63461;51.416;6.758;2022-12-18T00:16:12;-2.40;99.90
74901;DHT22;63461;51.416;6.758;2022-12-18T00:18:39;-2.50;99.90
74901;DHT22;63461;51.416;6.758;2022-12-18T00:21:07;-2.50;99.90
74901;DHT22;63461;51.416;6.758;2022-12-18T00:23:35;-2.40;99.90
74901;DHT22;63461;51.416;6.758;2022-12-18T00:26:03;-2.40;99.90
74901;DHT22;63461;51.416;6.758;2022-12-18T00:28:30;-2.40;99.90
74901;DHT22;63461;51.416;6.758;2022-12-18T00:31:20;-2.40;99.90
74901;DHT22;63461;51.416;6.758;2022-12-18T00:33:46;-2.30;99.90
74901;DHT22;63461;51.416;6.758;2022-12-18T00:36:18;-2.30;99.90
74901;DHT22;63461;51.416;6.758;2022-12-18T00:38:44;-2.30;99.90
74901;DHT22;63461;51.416;6.758;2022-12-18T00:41:11;-2.30;99.90
74901;DHT22;63461;51.416;6.758;2022-12-18T00:43:38;-2.30;99.90
74901;DHT22;63461;51.416;6.758;2022-12-18T00:46:04;-2.30;99.90
74901;DHT22;63461;51.416;6.758;2022-12-18T00:48:31;-2.30;99.90
74901;DHT22;63461;51.416;6.758;2022-12-18T00:50:57;-2.30;99.90
74901;DHT22;63461;51.416;6.758;2022-12-18T00:53:23;-2.30;99.90
74901;DHT22;63461;51.416;6.758;2022-12-18T00:55:48;-2.30;99.90
74901;DHT22;63461;51.416;6.758;2022-12-18T00:58:16;-2.30;99.90
74901;DHT22;63461;51.416;6.758;2022-12-18T01:00:42;-2.30;99.90
74901;DHT22;63461;51.416;6.758;2022-12-18T01:03:13;-2.30;99.90
74901;DHT22;63461;51.416;6.758;2022-12-18T01:05:40;-2.30;99.90
74901;DHT22;63461;51.416;6.758;2022-12-18T01:08:06;-2.30;99.90
74901;DHT22;63461;51.416;6.758;2022-12-18T01:10:32;-2.30;99.90
74901;DHT22;63461;51.416;6.758;2022-12-18T01:12:58;-2.30;99.90
74901;DHT22;63461;51.416;6.758;2022-12-18T01:15:24;-2.20;99.90
74901;DHT22;63461;51.416;6.758;2022-12-18T01:17:52;-2.20;99.90
74901;DHT22;63461;51.416;6.758;2022-12-18T01:20:18;-2.20;99.90
74901;DHT22;63461;51.416;6.758;2022-12-18T01:22:44;-2.20;99.90
74901;DHT22;63461;51.416;6.758;2022-12-18T01:25:09;-2.20;99.90
74901;DHT22;63461;51.416;6.758;2022-12-18T01:27:35;-2.20;99.90
74901;DHT22;63461;51.416;6.758;2022-12-18T01:30:03;-2.20;99.90
74901;DHT22;63461;51.416;6.758;2022-12-18T01:32:30;-2.30;99.90
74901;DHT22;63461;51.416;6.758;2022-12-18T01:34:56;-2.30;99.90
74901;DHT22;63461;51.416;6.758;2022-12-18T01:37:22;-2.30;99.90
74901;DHT22;63461;51.416;6.758;2022-12-18T01:39:48;-2.20;99.90
74901;DHT22;63461;51.416;6.758;2022-12-18T01:42:16;-2.20;99.90
74901;DHT22;63461;51.416;6.758;2022-12-18T01:45:05;-2.20;99.90
74901;DHT22;63461;51.416;6.758;2022-12-18T01:55:28;-2.20;99.90
74901;DHT22;63461;51.416;6.758;2022-12-18T01:57:57;-2.20;99.90
74901;DHT22;63461;51.416;6.758;2022-12-18T02:00:25;-2.20;99.90
74901;DHT22;63461;51.416;6.758;2022-12-18T02:02:52;-2.20;99.90
74901;DHT22;63461;51.416;6.758;2022-12-18T02:08:26;-2.20;99.90
74901;DHT22;63461;51.416;6.758;2022-12-18T02:13:46;-2.20;99.90
74901;DHT22;63461;51.416;6.758;2022-12-18T02:22:29;-2.30;99.90
74901;DHT22;63461;51.416;6.758;2022-12-18T02:27:56;-2.20;99.90
74901;DHT22;63461;51.416;6.758;2022-12-18T02:30:26;-2.20;99.90
74901;DHT22;63461;51.416;6.758;2022-12-18T02:32:54;-2.20;99.90
74901;DHT22;63461;51.416;6.758;2022-12-18T02:35:23;-2.20;99.90
74901;DHT22;63461;51.416;6.758;2022-12-18T02:37:53;-2.20;99.90
74901;DHT22;63461;51.416;6.758;2022-12-18T02:40:22;-2.10;99.90
74901;DHT22;63461;51.416;6.758;2022-12-18T02:42:49;-2.10;99.90
74901;DHT22;63461;51.416;6.758;2022-12-18T02:45:17;-2.10;99.90
74901;DHT22;63461;51.416;6.758;2022-12-18T02:47:47;-2.10;99.90
74901;DHT22;63461;51.416;6.758;2022-12-18T02:53:13;-2.10;99.90
74901;DHT22;63461;51.416;6.758;2022-12-18T02:56:03;-2.20;99.90
74901;DHT22;63461;51.416;6.758;2022-12-18T03:01:16;-2.20;99.90
74901;DHT22;63461;51.416;6.758;2022-12-18T03:04:08;-2.20;99.90
74901;DHT22;63461;51.416;6.758;2022-12-18T03:06:49;-2.10;99.90
74901;DHT22;63461;51.416;6.758;2022-12-18T03:09:22;-2.10;99.90
74901;DHT22;63461;51.416;6.758;2022-12-18T03:11:56;-2.10;99.90
74901;DHT22;63461;51.416;6.758;2022-12-18T03:14:43;-2.10;99.90
74901;DHT22;63461;51.416;6.758;2022-12-18T03:17:15;-2.10;99.90
74901;DHT22;63461;51.416;6.758;2022-12-18T03:19:44;-2.10;99.90
74901;DHT22;63461;51.416;6.758;2022-12-18T03:22:12;-2.00;99.90
74901;DHT22;63461;51.416;6.758;2022-12-18T03:24:48;-2.10;99.90
74901;DHT22;63461;51.416;6.758;2022-12-18T03:27:17;-2.00;99.90
74901;DHT22;63461;51.416;6.758;2022-12-18T03:29:47;-2.00;99.90
74901;DHT22;63461;51.416;6.758;2022-12-18T03:32:27;-2.00;99.90
74901;DHT22;63461;51.416;6.758;2022-12-18T03:34:58;-2.00;99.90
74901;DHT22;63461;51.416;6.758;2022-12-18T03:37:29;-2.00;99.90
74901;DHT22;63461;51.416;6.758;2022-12-18T03:39:54;-2.00;99.90
74901;DHT22;63461;51.416;6.758;2022-12-18T03:42:28;-1.90;99.90
74901;DHT22;63461;51.416;6.758;2022-12-18T03:50:59;-2.00;99.90
74901;DHT22;63461;51.416;6.758;2022-12-18T03:53:35;-1.90;99.90
74901;DHT22;63461;51.416;6.758;2022-12-18T03:56:04;-1.90;99.90
74901;DHT22;63461;51.416;6.758;2022-12-18T03:58:37;-1.90;99.90
74901;DHT22;63461;51.416;6.758;2022-12-18T04:01:16;-1.90;99.90
74901;DHT22;63461;51.416;6.758;2022-12-18T04:03:44;-1.90;99.90
74901;DHT22;63461;51.416;6.758;2022-12-18T04:06:13;-1.90;99.90
74901;DHT22;63461;51.416;6.758;2022-12-18T04:08:41;-1.80;99.90
74901;DHT22;63461;51.416;6.758;2022-12-18T04:11:10;-1.90;99.90
74901;DHT22;63461;51.416;6.758;2022-12-18T04:13:38;-1.80;99.90
74901;DHT22;63461;51.416;6.758;2022-12-18T04:16:08;-1.80;99.90
74901;DHT22;63461;51.416;6.758;2022-12-18T04:18:39;-1.90;99.90
74901;DHT22;63461;51.416;6.758;2022-12-18T04:21:05;-1.90;99.90
74901;DHT22;63461;51.416;6.758;2022-12-18T04:23:32;-1.80;99.90
74901;DHT22;63461;51.416;6.758;2022-12-18T04:25:58;-1.80;99.90
74901;DHT22;63461;51.416;6.758;2022-12-18T04:28:42;-1.90;99.90
74901;DHT22;63461;51.416;6.758;2022-12-18T04:31:08;-1.90;99.90
74901;DHT22;63461;51.416;6.758;2022-12-18T04:33:34;-1.90;99.90
74901;DHT22;63461;51.416;6.758;2022-12-18T04:36:01;-1.80;99.90
74901;DHT22;63461;51.416;6.758;2022-12-18T04:38:27;-1.90;99.90
74901;DHT22;63461;51.416;6.758;2022-12-18T04:41:00;-1.80;99.90
74901;DHT22;63461;51.416;6.758;2022-12-18T04:43:26;-1.90;99.90
74901;DHT22;63461;51.416;6.758;2022-12-18T04:45:52;-1.90;99.90
74901;DHT22;63461;51.416;6.758;2022-12-18T04:48:18;-1.90;99.90
74901;DHT22;63461;51.416;6.758;2022-12-18T04:50:46;-1.90;99.90
74901;DHT22;63461;51.416;6.758;2022-12-18T04:53:12;-2.00;99.90
74901;DHT22;63461;51.416;6.758;2022-12-18T04:55:38;-2.00;99.90
74901;DHT22;63461;51.416;6.758;2022-12-18T04:58:03;-2.00;99.90
74901;DHT22;63461;51.416;6.758;2022-12-18T05:00:29;-2.00;99.90
74901;DHT22;63461;51.416;6.758;2022-12-18T05:02:55;-2.00;99.90
74901;DHT22;63461;51.416;6.758;2022-12-18T05:05:21;-2.00;99.90
74901;DHT22;63461;51.416;6.758;2022-12-18T05:07:46;-2.00;99.90
74901;DHT22;63461;51.416;6.758;2022-12-18T05:10:12;-2.10;99.90
74901;DHT22;63461;51.416;6.758;2022-12-18T05:12:38;-2.10;99.90
74901;DHT22;63461;51.416;6.758;2022-12-18T05:15:26;-2.10;99.90
74901;DHT22;63461;51.416;6.758;2022-12-18T05:17:52;-2.10;99.90
74901;DHT22;63461;51.416;6.758;2022-12-18T05:20:17;-2.00;99.90
74901;DHT22;63461;51.416;6.758;2022-12-18T05:22:44;-2.10;99.90
74901;DHT22;63461;51.416;6.758;2022-12-18T05:25:09;-2.10;99.90
74901;DHT22;63461;51.416;6.758;2022-12-18T05:27:35;-2.10;99.90
74901;DHT22;63461;51.416;6.758;2022-12-18T05:30:01;-2.10;99.90
74901;DHT22;63461;51.416;6.758;2022-12-18T05:32:27;-2.20;99.90
74901;DHT22;63461;51.416;6.758;2022-12-18T05:34:53;-2.10;99.90
74901;DHT22;63461;51.416;6.758;2022-12-18T05:37:19;-2.20;99.90
74901;DHT22;63461;51.416;6.758;2022-12-18T05:39:44;-2.20;99.90
74901;DHT22;63461;51.416;6.758;2022-12-18T05:42:10;-2.20;99.90
74901;DHT22;63461;51.416;6.758;2022-12-18T05:44:36;-2.20;99.90
74901;DHT22;63461;51.416;6.758;2022-12-18T05:47:01;-2.20;99.90
74901;DHT22;63461;51.416;6.758;2022-12-18T05:49:27;-2.20;99.90
74901;DHT22;63461;51.416;6.758;2022-12-18T05:51:53;-2.20;99.90
74901;DHT22;63461;51.416;6.758;2022-12-18T05:54:19;-2.30;99.90
74901;DHT22;63461;51.416;6.758;2022-12-18T05:56:44;-2.20;99.90
74901;DHT22;63461;51.416;6.758;2022-12-18T05:59:10;-2.30;99.90
74901;DHT22;63461;51.416;6.758;2022-12-18T06:01:36;-2.30;99.90
74901;DHT22;63461;51.416;6.758;2022-12-18T06:04:01;-2.20;99.90
74901;DHT22;63461;51.416;6.758;2022-12-18T06:06:28;-2.30;99.90
74901;DHT22;63461;51.416;6.758;2022-12-18T06:08:55;-2.30;99.90
74901;DHT22;63461;51.416;6.758;2022-12-18T06:11:24;-2.30;99.90
74901;DHT22;63461;51.416;6.758;2022-12-18T06:13:52;-2.20;99.90
74901;DHT22;63461;51.416;6.758;2022-12-18T06:16:18;-2.30;99.90
74901;DHT22;63461;51.416;6.758;2022-12-18T06:18:44;-2.30;99.90
74901;DHT22;63461;51.416;6.758;2022-12-18T06:21:10;-2.20;99.90
74901;DHT22;63461;51.416;6.758;2022-12-18T06:23:36;-2.20;99.90
74901;DHT22;63461;51.416;6.758;2022-12-18T06:26:10;-2.20;99.90
74901;DHT22;63461;51.416;6.758;2022-12-18T06:28:37;-2.20;99.90
74901;DHT22;63461;51.416;6.758;2022-12-18T06:31:03;-2.20;99.90
74901;DHT22;63461;51.416;6.758;2022-12-18T06:33:29;-2.20;99.90
74901;DHT22;63461;51.416;6.758;2022-12-18T06:36:01;-2.20;99.90
74901;DHT22;63461;51.416;6.758;2022-12-18T06:38:27;-2.20;99.90
74901;DHT22;63461;51.416;6.758;2022-12-18T06:40:52;-2.20;99.90
74901;DHT22;63461;51.416;6.758;2022-12-18T06:43:18;-2.20;99.90
74901;DHT22;63461;51.416;6.758;2022-12-18T06:45:44;-2.20;99.90
74901;DHT22;63461;51.416;6.758;2022-12-18T06:48:11;-2.30;99.90
74901;DHT22;63461;51.416;6.758;2022-12-18T06:50:41;-2.30;99.90
74901;DHT22;63461;51.416;6.758;2022-12-18T06:53:07;-2.30;99.90
74901;DHT22;63461;51.416;6.758;2022-12-18T06:55:32;-2.30;99.90
74901;DHT22;63461;51.416;6.758;2022-12-18T06:57:58;-2.40;99.90
74901;DHT22;63461;51.416;6.758;2022-12-18T07:00:24;-2.40;99.90
74901;DHT22;63461;51.416;6.758;2022-12-18T07:02:50;-2.40;99.90
74901;DHT22;63461;51.416;6.758;2022-12-18T07:05:16;-2.40;99.90
74901;DHT22;63461;51.416;6.758;2022-12-18T07:07:42;-2.40;99.90
74901;DHT22;63461;51.416;6.758;2022-12-18T07:10:08;-2.40;99.90
74901;DHT22;63461;51.416;6.758;2022-12-18T07:12:33;-2.30;99.90
74901;DHT22;63461;51.416;6.758;2022-12-18T07:14:59;-2.40;99.90
74901;DHT22;63461;51.416;6.758;2022-12-18T07:17:25;-2.40;99.90
74901;DHT22;63461;51.416;6.758;2022-12-18T07:19:51;-2.40;99.90
74901;DHT22;63461;51.416;6.758;2022-12-18T07:22:16;-2.40;99.90
74901;DHT22;63461;51.416;6.758;2022-12-18T07:24:42;-2.40;99.90
74901;DHT22;63461;51.416;6.758;2022-12-18T07:27:08;-2.40;99.90
74901;DHT22;63461;51.416;6.758;2022-12-18T07:29:34;-2.40;99.90
74901;DHT22;63461;51.416;6.758;2022-12-18T07:32:00;-2.40;99.90
74901;DHT22;63461;51.416;6.758;2022-12-18T07:34:25;-2.50;99.90
74901;DHT22;63461;51.416;6.758;2022-12-18T07:36:51;-2.50;99.90
74901;DHT22;63461;51.416;6.758;2022-12-18T07:39:17;-2.50;99.90
74901;DHT22;63461;51.416;6.758;2022-12-18T07:41:42;-2.50;99.90
74901;DHT22;63461;51.416;6.758;2022-12-18T07:44:28;-2.50;99.90
74901;DHT22;63461;51.416;6.758;2022-12-18T07:46:54;-2.50;99.90
74901;DHT22;63461;51.416;6.758;2022-12-18T07:49:20;-2.60;99.90
74901;DHT22;63461;51.416;6.758;2022-12-18T07:51:45;-2.50;99.90
74901;DHT22;63461;51.416;6.758;2022-12-18T07:54:14;-2.40;99.90
74901;DHT22;63461;51.416;6.758;2022-12-18T07:56:40;-2.40;99.90
74901;DHT22;63461;51.416;6.758;2022-12-18T07:59:06;-2.40;99.90
74901;DHT22;63461;51.416;6.758;2022-12-18T08:01:33;-2.30;99.90
74901;DHT22;63461;51.416;6.758;2022-12-18T08:03:59;-2.30;99.90
74901;DHT22;63461;51.416;6.758;2022-12-18T08:06:25;-2.20;99.90
74901;DHT22;63461;51.416;6.758;2022-12-18T08:08:52;-2.20;99.90
74901;DHT22;63461;51.416;6.758;2022-12-18T08:11:19;-2.10;99.90
74901;DHT22;63461;51.416;6.758;2022-12-18T08:13:45;-2.00;99.90
74901;DHT22;63461;51.416;6.758;2022-12-18T08:16:10;-2.00;99.90
74901;DHT22;63461;51.416;6.758;2022-12-18T08:18:37;-1.90;99.90
74901;DHT22;63461;51.416;6.758;2022-12-18T08:21:14;-1.90;99.90
74901;DHT22;63461;51.416;6.758;2022-12-18T08:23:40;-1.90;99.90
74901;DHT22;63461;51.416;6.758;2022-12-18T08:26:06;-1.80;99.90
74901;DHT22;63461;51.416;6.758;2022-12-18T08:28:33;-1.70;99.90
74901;DHT22;63461;51.416;6.758;2022-12-18T08:30:59;-1.70;99.90
74901;DHT22;63461;51.416;6.758;2022-12-18T08:33:25;-1.60;99.90
74901;DHT22;63461;51.416;6.758;2022-12-18T08:35:52;-1.60;99.90
74901;DHT22;63461;51.416;6.758;2022-12-18T08:38:17;-1.60;99.90
74901;DHT22;63461;51.416;6.758;2022-12-18T08:40:43;-1.50;99.90
74901;DHT22;63461;51.416;6.758;2022-12-18T08:43:10;-1.50;99.90
74901;DHT22;63461;51.416;6.758;2022-12-18T08:45:55;-1.40;99.90
74901;DHT22;63461;51.416;6.758;2022-12-18T08:48:21;-1.30;99.90
74901;DHT22;63461;51.416;6.758;2022-12-18T08:50:57;-1.30;99.90
74901;DHT22;63461;51.416;6.758;2022-12-18T08:53:23;-1.30;99.90
74901;DHT22;63461;51.416;6.758;2022-12-18T08:55:49;-1.30;99.90
74901;DHT22;63461;51.416;6.758;2022-12-18T08:58:15;-1.20;99.90
74901;DHT22;63461;51.416;6.758;2022-12-18T09:00:41;-1.20;99.90
74901;DHT22;63461;51.416;6.758;2022-12-18T09:03:14;-1.10;99.90
74901;DHT22;63461;51.416;6.758;2022-12-18T09:05:40;-1.10;99.90
74901;DHT22;63461;51.416;6.758;2022-12-18T09:08:06;-1.10;99.90
74901;DHT22;63461;51.416;6.758;2022-12-18T09:10:32;-1.00;99.90
74901;DHT22;63461;51.416;6.758;2022-12-18T09:12:58;-0.90;99.90
74901;DHT22;63461;51.416;6.758;2022-12-18T09:15:25;-0.90;99.90
74901;DHT22;63461;51.416;6.758;2022-12-18T09:17:50;-0.90;99.90
74901;DHT22;63461;51.416;6.758;2022-12-18T09:20:18;-0.90;99.90
74901;DHT22;63461;51.416;6.758;2022-12-18T09:22:44;-0.80;99.90
74901;DHT22;63461;51.416;6.758;2022-12-18T09:25:10;-0.80;99.90
74901;DHT22;63461;51.416;6.758;2022-12-18T09:27:36;-0.80;99.90
74901;DHT22;63461;51.416;6.758;2022-12-18T09:30:02;-0.70;99.90
74901;DHT22;63461;51.416;6.758;2022-12-18T09:32:28;-0.60;99.90
74901;DHT22;63461;51.416;6.758;2022-12-18T09:34:54;-0.60;99.90
74901;DHT22;63461;51.416;6.758;2022-12-18T09:37:20;-0.60;99.90
74901;DHT22;63461;51.416;6.758;2022-12-18T09:39:45;-0.50;99.90
74901;DHT22;63461;51.416;6.758;2022-12-18T09:42:30;-0.50;99.90
74901;DHT22;63461;51.416;6.758;2022-12-18T09:44:56;-0.40;99.90
74901;DHT22;63461;51.416;6.758;2022-12-18T09:47:28;-0.30;99.90
74901;DHT22;63461;51.416;6.758;2022-12-18T09:49:58;-0.30;99.90
74901;DHT22;63461;51.416;6.758;2022-12-18T09:52:39;-0.20;99.90
74901;DHT22;63461;51.416;6.758;2022-12-18T09:57:35;0.00;99.90
74901;DHT22;63461;51.416;6.758;2022-12-18T10:00:24;0.00;99.90
74901;DHT22;63461;51.416;6.758;2022-12-18T10:03:00;0.10;99.90
74901;DHT22;63461;51.416;6.758;2022-12-18T10:08:24;0.30;99.90
74901;DHT22;63461;51.416;6.758;2022-12-18T10:10:56;0.30;99.90
74901;DHT22;63461;51.416;6.758;2022-12-18T10:13:40;0.30;99.90
74901;DHT22;63461;51.416;6.758;2022-12-18T10:16:22;0.40;99.90
74901;DHT22;63461;51.416;6.758;2022-12-18T10:19:17;0.50;99.90
74901;DHT22;63461;51.416;6.758;2022-12-18T10:27:14;0.50;99.90
74901;DHT22;63461;51.416;6.758;2022-12-18T10:29:44;0.60;99.90
74901;DHT22;63461;51.416;6.758;2022-12-18T10:32:40;0.70;99.90
74901;DHT22;63461;51.416;6.758;2022-12-18T10:35:26;0.80;99.90
74901;DHT22;63461;51.416;6.758;2022-12-18T10:38:04;0.80;99.90
74901;DHT22;63461;51.416;6.758;2022-12-18T10:40:31;0.90;99.90
74901;DHT22;63461;51.416;6.758;2022-12-18T10:43:14;1.00;99.90
74901;DHT22;63461;51.416;6.758;2022-12-18T10:45:42;1.00;99.90
74901;DHT22;63461;51.416;6.758;2022-12-18T10:48:24;1.10;99.90
74901;DHT22;63461;51.416;6.758;2022-12-18T10:50:51;1.10;99.90
74901;DHT22;63461;51.416;6.758;2022-12-18T10:53:28;1.20;99.90
74901;DHT22;63461;51.416;6.758;2022-12-18T10:55:56;1.20;99.90
74901;DHT22;63461;51.416;6.758;2022-12-18T10:58:33;1.20;99.90
74901;DHT22;63461;51.416;6.758;2022-12-18T11:01:11;1.30;99.90
74901;DHT22;63461;51.416;6.758;2022-12-18T11:03:38;1.30;99.90
74901;DHT22;63461;51.416;6.758;2022-12-18T11:06:12;1.40;99.60
74901;DHT22;63461;51.416;6.758;2022-12-18T11:08:40;1.40;99.60
74901;DHT22;63461;51.416;6.758;2022-12-18T11:11:20;1.50;99.20
74901;DHT22;63461;51.416;6.758;2022-12-18T11:14:06;1.50;98.90
74901;DHT22;63461;51.416;6.758;2022-12-18T11:16:43;1.60;98.70
74901;DHT22;63461;51.416;6.758;2022-12-18T11:19:31;1.60;99.70
74901;DHT22;63461;51.416;6.758;2022-12-18T11:21:58;1.70;99.80
74901;DHT22;63461;51.416;6.758;2022-12-18T11:24:31;1.70;98.20
74901;DHT22;63461;51.416;6.758;2022-12-18T11:26:59;1.70;98.20
74901;DHT22;63461;51.416;6.758;2022-12-18T11:29:38;1.70;98.60
74901;DHT22;63461;51.416;6.758;2022-12-18T11:35:22;1.90;98.00
74901;DHT22;63461;51.416;6.758;2022-12-18T11:37:53;1.90;97.90
74901;DHT22;63461;51.416;6.758;2022-12-18T11:40:24;2.00;98.50
74901;DHT22;63461;51.416;6.758;2022-12-18T11:45:55;2.00;97.90
74901;DHT22;63461;51.416;6.758;2022-12-18T11:48:32;2.10;97.70
74901;DHT22;63461;51.416;6.758;2022-12-18T11:51:00;2.10;97.90
74901;DHT22;63461;51.416;6.758;2022-12-18T11:53:27;2.10;96.90
74901;DHT22;63461;51.416;6.758;2022-12-18T11:56:16;2.20;96.90
74901;DHT22;63461;51.416;6.758;2022-12-18T12:01:45;2.20;96.60
74901;DHT22;63461;51.416;6.758;2022-12-18T12:04:41;2.30;96.70
74901;DHT22;63461;51.416;6.758;2022-12-18T12:15:43;2.30;95.70
74901;DHT22;63461;51.416;6.758;2022-12-18T12:18:47;2.30;95.70
74901;DHT22;63461;51.416;6.758;2022-12-18T12:24:12;2.40;95.80
74901;DHT22;63461;51.416;6.758;2022-12-18T12:32:16;2.40;95.40
74901;DHT22;63461;51.416;6.758;2022-12-18T12:40:37;2.50;95.10
74901;DHT22;63461;51.416;6.758;2022-12-18T12:46:04;2.40;95.20
74901;DHT22;63461;51.416;6.758;2022-12-18T12:51:22;2.60;94.90
74901;DHT22;63461;51.416;6.758;2022-12-18T12:53:50;2.60;94.40
74901;DHT22;63461;51.416;6.758;2022-12-18T12:56:18;2.60;95.00
74901;DHT22;63461;51.416;6.758;2022-12-18T13:01:25;2.50;94.60
74901;DHT22;63461;51.416;6.758;2022-12-18T13:09:12;2.40;94.90
74901;DHT22;63461;51.416;6.758;2022-12-18T13:11:41;2.40;94.60
74901;DHT22;63461;51.416;6.758;2022-12-18T13:14:32;2.40;94.80
74901;DHT22;63461;51.416;6.758;2022-12-18T13:17:28;2.50;94.80
74901;DHT22;63461;51.416;6.758;2022-12-18T13:20:12;2.40;94.70
74901;DHT22;63461;51.416;6.758;2022-12-18T13:25:36;2.40;94.90
74901;DHT22;63461;51.416;6.758;2022-12-18T13:40:59;2.50;94.50
74901;DHT22;63461;51.416;6.758;2022-12-18T13:48:36;2.50;94.50
74901;DHT22;63461;51.416;6.758;2022-12-18T13:51:09;2.60;94.20
74901;DHT22;63461;51.416;6.758;2022-12-18T13:53:42;2.50;94.80
74901;DHT22;63461;51.416;6.758;2022-12-18T13:56:09;2.50;94.40
74901;DHT22;63461;51.416;6.758;2022-12-18T13:58:34;2.60;94.10
74901;DHT22;63461;51.416;6.758;2022-12-18T14:01:00;2.50;94.10
74901;DHT22;63461;51.416;6.758;2022-12-18T14:03:29;2.50;94.50
74901;DHT22;63461;51.416;6.758;2022-12-18T14:06:00;2.30;94.60
74901;DHT22;63461;51.416;6.758;2022-12-18T14:08:32;2.30;94.60
74901;DHT22;63461;51.416;6.758;2022-12-18T14:11:00;2.30;94.60
74901;DHT22;63461;51.416;6.758;2022-12-18T14:13:31;2.40;94.60
74901;DHT22;63461;51.416;6.758;2022-12-18T14:16:00;2.40;94.00
74901;DHT22;63461;51.416;6.758;2022-12-18T14:21:02;2.30;94.50
74901;DHT22;63461;51.416;6.758;2022-12-18T14:25:54;2.30;93.80
74901;DHT22;63461;51.416;6.758;2022-12-18T14:28:20;2.20;94.20
74901;DHT22;63461;51.416;6.758;2022-12-18T14:30:48;2.40;94.50
74901;DHT22;63461;51.416;6.758;2022-12-18T14:33:16;2.40;93.80
74901;DHT22;63461;51.416;6.758;2022-12-18T14:38:35;2.30;93.60
74901;DHT22;63461;51.416;6.758;2022-12-18T14:43:36;2.30;94.30
74901;DHT22;63461;51.416;6.758;2022-12-18T14:46:04;2.30;94.40
74901;DHT22;63461;51.416;6.758;2022-12-18T14:48:39;2.30;94.40
74901;DHT22;63461;51.416;6.758;2022-12-18T14:51:16;2.30;94.00
74901;DHT22;63461;51.416;6.758;2022-12-18T14:53:44;2.30;94.10
74901;DHT22;63461;51.416;6.758;2022-12-18T14:56:23;2.40;94.00
74901;DHT22;63461;51.416;6.758;2022-12-18T15:01:26;2.30;94.20
74901;DHT22;63461;51.416;6.758;2022-12-18T15:03:53;2.20;93.90
74901;DHT22;63461;51.416;6.758;2022-12-18T15:06:37;2.20;94.00
74901;DHT22;63461;51.416;6.758;2022-12-18T15:09:22;2.20;93.80
74901;DHT22;63461;51.416;6.758;2022-12-18T15:11:48;2.10;93.90
74901;DHT22;63461;51.416;6.758;2022-12-18T15:14:34;2.30;93.90
74901;DHT22;63461;51.416;6.758;2022-12-18T15:17:02;2.20;93.80
74901;DHT22;63461;51.416;6.758;2022-12-18T15:19:48;2.10;93.80
74901;DHT22;63461;51.416;6.758;2022-12-18T15:22:27;2.10;94.00
74901;DHT22;63461;51.416;6.758;2022-12-18T15:24:54;2.10;93.80
74901;DHT22;63461;51.416;6.758;2022-12-18T15:27:28;2.10;94.10
74901;DHT22;63461;51.416;6.758;2022-12-18T15:30:15;2.10;93.90
74901;DHT22;63461;51.416;6.758;2022-12-18T15:32:42;2.00;94.20
74901;DHT22;63461;51.416;6.758;2022-12-18T15:37:37;2.10;93.90
74901;DHT22;63461;51.416;6.758;2022-12-18T15:40:04;2.00;94.20
74901;DHT22;63461;51.416;6.758;2022-12-18T15:42:30;1.90;94.30
74901;DHT22;63461;51.416;6.758;2022-12-18T15:45:14;1.90;94.80
74901;DHT22;63461;51.416;6.758;2022-12-18T15:47:41;2.00;94.90
74901;DHT22;63461;51.416;6.758;2022-12-18T15:50:10;2.00;94.40
74901;DHT22;63461;51.416;6.758;2022-12-18T15:52:43;2.40;95.00
74901;DHT22;63461;51.416;6.758;2022-12-18T15:55:13;2.10;94.40
74901;DHT22;63461;51.416;6.758;2022-12-18T15:57:58;2.00;94.70
74901;DHT22;63461;51.416;6.758;2022-12-18T16:00:23;1.80;94.60
74901;DHT22;63461;51.416;6.758;2022-12-18T16:02:49;1.80;94.70
74901;DHT22;63461;51.416;6.758;2022-12-18T16:05:17;1.80;94.80
74901;DHT22;63461;51.416;6.758;2022-12-18T16:07:43;1.80;95.00
74901;DHT22;63461;51.416;6.758;2022-12-18T16:10:10;1.80;95.00
74901;DHT22;63461;51.416;6.758;2022-12-18T16:12:36;1.70;95.20
74901;DHT22;63461;51.416;6.758;2022-12-18T16:15:04;1.80;95.20
74901;DHT22;63461;51.416;6.758;2022-12-18T16:17:30;1.90;95.20
74901;DHT22;63461;51.416;6.758;2022-12-18T16:19:56;1.80;95.10
74901;DHT22;63461;51.416;6.758;2022-12-18T16:22:28;1.80;95.30
74901;DHT22;63461;51.416;6.758;2022-12-18T16:24:55;1.80;95.40
74901;DHT22;63461;51.416;6.758;2022-12-18T16:27:22;1.80;95.40
74901;DHT22;63461;51.416;6.758;2022-12-18T16:29:48;1.80;95.40
74901;DHT22;63461;51.416;6.758;2022-12-18T16:32:17;1.70;95.70
74901;DHT22;63461;51.416;6.758;2022-12-18T16:34:43;1.80;95.90
74901;DHT22;63461;51.416;6.758;2022-12-18T16:37:11;1.70;96.00
74901;DHT22;63461;51.416;6.758;2022-12-18T16:39:37;1.70;96.10
74901;DHT22;63461;51.416;6.758;2022-12-18T16:42:06;1.90;96.30
74901;DHT22;63461;51.416;6.758;2022-12-18T16:44:34;1.80;96.00
74901;DHT22;63461;51.416;6.758;2022-12-18T16:47:00;1.70;96.30
74901;DHT22;63461;51.416;6.758;2022-12-18T16:49:27;1.70;96.40
74901;DHT22;63461;51.416;6.758;2022-12-18T16:51:54;1.60;96.60
74901;DHT22;63461;51.416;6.758;2022-12-18T16:54:20;1.70;96.80
74901;DHT22;63461;51.416;6.758;2022-12-18T16:56:46;1.80;96.70
74901;DHT22;63461;51.416;6.758;2022-12-18T16:59:14;1.70;96.80
74901;DHT22;63461;51.416;6.758;2022-12-18T17:01:40;1.80;96.90
74901;DHT22;63461;51.416;6.758;2022-12-18T17:04:07;1.60;97.20
74901;DHT22;63461;51.416;6.758;2022-12-18T17:06:35;1.60;97.40
74901;DHT22;63461;51.416;6.758;2022-12-18T17:09:06;1.60;97.40
74901;DHT22;63461;51.416;6.758;2022-12-18T17:11:33;1.60;97.50
74901;DHT22;63461;51.416;6.758;2022-12-18T17:14:20;1.70;97.90
74901;DHT22;63461;51.416;6.758;2022-12-18T17:16:49;1.60;97.90
74901;DHT22;63461;51.416;6.758;2022-12-18T17:19:15;1.50;98.10
74901;DHT22;63461;51.416;6.758;2022-12-18T17:21:43;1.60;98.00
74901;DHT22;63461;51.416;6.758;2022-12-18T17:24:11;1.60;98.30
74901;DHT22;63461;51.416;6.758;2022-12-18T17:26:37;1.50;98.50
74901;DHT22;63461;51.416;6.758;2022-12-18T17:29:03;1.70;98.70
74901;DHT22;63461;51.416;6.758;2022-12-18T17:31:30;1.50;98.40
74901;DHT22;63461;51.416;6.758;2022-12-18T17:33:56;1.60;98.70
74901;DHT22;63461;51.416;6.758;2022-12-18T17:36:23;1.70;98.60
74901;DHT22;63461;51.416;6.758;2022-12-18T17:38:54;1.70;98.80
74901;DHT22;63461;51.416;6.758;2022-12-18T17:41:20;1.70;98.90
74901;DHT22;63461;51.416;6.758;2022-12-18T17:43:56;1.50;99.20
74901;DHT22;63461;51.416;6.758;2022-12-18T17:46:23;1.50;99.60
74901;DHT22;63461;51.416;6.758;2022-12-18T17:48:50;1.50;99.50
74901;DHT22;63461;51.416;6.758;2022-12-18T17:51:17;1.60;99.50
74901;DHT22;63461;51.416;6.758;2022-12-18T17:53:43;1.60;99.50
74901;DHT22;63461;51.416;6.758;2022-12-18T17:56:15;1.60;99.70
74901;DHT22;63461;51.416;6.758;2022-12-18T17:58:42;1.60;99.90
74901;DHT22;63461;51.416;6.758;2022-12-18T18:01:11;1.60;99.80